Time;durP1;ratioP1;P1;durP2;ratioP2;P2;SDS_P1;SDS_P2;PMS_P1;PMS_P2;Temp;Humidity;BMP_temperature;BMP_pressure;BME280_temperature;BME280_humidity;BME280_pressure;Samples;Min_cycle;Max_cycle;Signal;HPM_P1;HPM_P2
2022/12/24 00:00:31;;;;;;;27.80;14.98;;;8.50;99.90;;;;;;5120365;27;20126;-68
2022/12/24 00:02:57;;;;;;;29.48;14.70;;;8.50;99.90;;;;;;5086127;27;20142;-68
2022/12/24 00:05:23;;;;;;;28.60;15.50;;;8.50;99.90;;;;;;5086844;28;20071;-68
2022/12/24 00:07:48;;;;;;;33.55;16.40;;;8.50;99.90;;;;;;5089865;28;20089;-68
2022/12/24 00:10:14;;;;;;;36.80;16.42;;;8.40;99.90;;;;;;5071107;28;20135;-68
2022/12/24 00:12:39;;;;;;;36.50;15.48;;;8.40;99.90;;;;;;5074055;28;20055;-69
2022/12/24 00:15:06;;;;;;;37.22;14.98;;;8.40;99.90;;;;;;5089825;28;20047;-68
2022/12/24 00:17:32;;;;;;;39.10;16.10;;;8.40;99.90;;;;;;5090023;28;20047;-68
2022/12/24 00:19:57;;;;;;;34.58;15.35;;;8.30;99.90;;;;;;5120754;27;20043;-68
2022/12/24 00:22:23;;;;;;;34.67;15.10;;;8.30;99.90;;;;;;5089055;28;20042;-68
2022/12/24 00:24:49;;;;;;;29.63;14.93;;;8.30;99.90;;;;;;5088326;28;20028;-68
2022/12/24 00:27:15;;;;;;;35.38;14.98;;;8.30;99.90;;;;;;5091948;28;20152;-68
2022/12/24 00:29:40;;;;;;;30.10;13.27;;;8.20;99.90;;;;;;5119011;27;20047;-68
2022/12/24 00:32:08;;;;;;;25.63;12.93;;;8.30;99.90;;;;;;5124134;27;20081;-68
2022/12/24 00:34:35;;;;;;;23.52;12.63;;;8.30;99.90;;;;;;5091479;28;20046;-68
2022/12/24 00:37:02;;;;;;;32.80;12.38;;;8.30;99.90;;;;;;5089091;28;20061;-68
2022/12/24 00:39:27;;;;;;;20.73;11.50;;;8.30;99.90;;;;;;5089674;28;20032;-68
2022/12/24 00:41:53;;;;;;;20.42;10.57;;;8.30;99.90;;;;;;5090006;28;20169;-68
2022/12/24 00:44:18;;;;;;;22.05;9.80;;;8.30;99.90;;;;;;5086527;28;20056;-68
2022/12/24 00:46:44;;;;;;;13.23;8.25;;;8.30;99.90;;;;;;5119560;27;20101;-69
2022/12/24 00:49:11;;;;;;;15.45;7.40;;;8.30;99.90;;;;;;5081381;28;20073;-68
2022/12/24 00:51:37;;;;;;;17.75;7.80;;;8.30;99.90;;;;;;5082000;28;20452;-67
2022/12/24 00:54:03;;;;;;;10.80;6.72;;;8.30;99.90;;;;;;5101923;28;20032;-68
2022/12/24 00:56:29;;;;;;;11.95;6.75;;;8.30;99.90;;;;;;5120483;27;20039;-67
2022/12/24 00:58:55;;;;;;;15.38;7.03;;;8.30;99.90;;;;;;5120836;27;20393;-68
2022/12/24 01:01:21;;;;;;;14.20;7.20;;;8.30;99.90;;;;;;5088396;28;20047;-68
2022/12/24 01:03:48;;;;;;;14.48;6.70;;;8.30;99.90;;;;;;5124437;27;20450;-68
2022/12/24 01:06:17;;;;;;;13.10;7.03;;;8.30;99.90;;;;;;5111498;27;20050;-67
2022/12/24 01:08:43;;;;;;;11.55;7.32;;;8.40;99.90;;;;;;5120373;27;20212;-68
2022/12/24 01:11:10;;;;;;;16.02;7.57;;;8.40;99.90;;;;;;5089142;27;20043;-68
2022/12/24 01:13:37;;;;;;;17.25;8.30;;;8.40;99.90;;;;;;5086885;28;20478;-68
2022/12/24 01:16:03;;;;;;;15.48;8.32;;;8.40;99.90;;;;;;5122025;27;20044;-68
2022/12/24 01:18:29;;;;;;;14.45;8.18;;;8.40;99.90;;;;;;5091886;27;20401;-68
2022/12/24 01:21:00;;;;;;;15.63;7.70;;;8.40;99.90;;;;;;5122479;27;20081;-68
2022/12/24 01:23:26;;;;;;;15.13;8.32;;;8.50;99.90;;;;;;5103651;27;20070;-68
2022/12/24 01:25:52;;;;;;;12.25;8.00;;;8.50;99.90;;;;;;5087717;27;20378;-69
2022/12/24 01:28:19;;;;;;;12.43;7.57;;;8.50;99.90;;;;;;5121298;27;20062;-68
2022/12/24 01:30:45;;;;;;;14.15;7.97;;;8.50;99.90;;;;;;5127466;27;20134;-69
2022/12/24 01:33:12;;;;;;;15.23;7.85;;;8.50;99.90;;;;;;5095165;28;20047;-68
2022/12/24 01:35:39;;;;;;;12.88;6.90;;;8.50;99.90;;;;;;5090483;28;20576;-68
2022/12/24 01:38:05;;;;;;;11.18;6.88;;;8.50;99.90;;;;;;5092124;28;20051;-68
2022/12/24 01:43:23;;;;;;;15.02;6.97;;;8.60;99.90;;;;;;5094538;27;20081;-68
2022/12/24 01:46:16;;;;;;;13.07;4.85;;;8.60;99.90;;;;;;5126537;27;20047;-68
2022/12/24 01:48:51;;;;;;;11.38;4.05;;;8.60;99.90;;;;;;5089047;27;20087;-69
2022/12/24 01:51:32;;;;;;;17.58;4.00;;;8.60;99.90;;;;;;5124498;27;20063;-68
2022/12/24 01:54:03;;;;;;;27.35;4.30;;;8.60;99.90;;;;;;5088570;27;20103;-68
2022/12/24 01:56:31;;;;;;;23.70;4.35;;;8.50;99.90;;;;;;5127749;27;20036;-68
2022/12/24 01:59:03;;;;;;;25.48;4.05;;;8.50;99.90;;;;;;5127676;27;20036;-68
2022/12/24 02:01:28;;;;;;;36.85;5.47;;;8.40;99.90;;;;;;5091983;28;20075;-69
2022/12/24 02:03:54;;;;;;;32.10;4.55;;;8.40;99.90;;;;;;5126803;27;20071;-68
2022/12/24 02:06:21;;;;;;;31.23;5.25;;;8.40;99.90;;;;;;5091595;28;20435;-67
2022/12/24 02:08:47;;;;;;;40.25;4.47;;;8.40;99.90;;;;;;5123238;27;20061;-68
2022/12/24 02:11:15;;;;;;;37.40;4.53;;;8.40;99.90;;;;;;5088372;28;20027;-68
2022/12/24 02:13:45;;;;;;;38.47;4.97;;;8.30;99.90;;;;;;5126332;27;20035;-68
2022/12/24 02:16:21;;;;;;;34.95;4.90;;;8.30;99.90;;;;;;5091129;28;20067;-68
2022/12/24 02:19:13;;;;;;;31.45;4.60;;;8.30;99.90;;;;;;5091473;28;20046;-68
2022/12/24 02:21:57;;;;;;;46.97;5.28;;;8.40;99.90;;;;;;5092454;28;20471;-68
2022/12/24 02:25:01;;;;;;;33.80;4.88;;;8.40;99.90;;;;;;5092020;28;20050;-68
2022/12/24 02:27:49;;;;;;;35.28;5.32;;;8.50;99.90;;;;;;5125730;27;20050;-68
2022/12/24 02:30:42;;;;;;;38.25;4.88;;;8.50;99.90;;;;;;5091760;28;20051;-68
2022/12/24 02:33:24;;;;;;;45.53;6.18;;;8.60;99.90;;;;;;5092842;28;20036;-68
2022/12/24 02:35:56;;;;;;;38.50;5.25;;;8.60;99.90;;;;;;5094377;27;20051;-68
2022/12/24 02:38:46;;;;;;;33.17;5.15;;;8.60;99.90;;;;;;5093333;28;20039;-68
2022/12/24 02:42:04;;;;;;;36.78;4.80;;;8.60;99.90;;;;;;5008152;28;20445;-68
2022/12/24 02:44:15;;;;;;;34.45;4.68;;;8.70;99.90;;;;;;4986187;28;20064;-67
2022/12/24 02:46:40;;;;;;;39.80;5.60;;;8.70;99.90;;;;;;4989358;28;20058;-68
2022/12/24 02:49:06;;;;;;;30.73;4.72;;;8.70;99.90;;;;;;4971563;28;20049;-67
2022/12/24 02:51:32;;;;;;;35.20;5.55;;;8.80;99.90;;;;;;4980040;28;20034;-68
2022/12/24 02:53:58;;;;;;;34.90;6.20;;;8.80;99.90;;;;;;4994588;28;20037;-68
2022/12/24 02:56:31;;;;;;;30.27;5.13;;;8.80;99.90;;;;;;4988324;28;20041;-68
2022/12/24 02:59:15;;;;;;;40.10;5.10;;;8.80;99.90;;;;;;5025838;28;20085;-68
2022/12/24 03:02:04;;;;;;;36.00;4.97;;;8.80;99.90;;;;;;4993209;28;20085;-67
2022/12/24 03:04:46;;;;;;;35.92;4.38;;;8.80;99.90;;;;;;4993270;28;20057;-68
2022/12/24 03:07:14;;;;;;;30.60;4.47;;;8.80;99.90;;;;;;5022776;28;20523;-68
2022/12/24 03:09:54;;;;;;;36.75;5.43;;;8.80;99.90;;;;;;5003792;28;20041;-67
2022/12/24 03:12:27;;;;;;;36.50;5.30;;;8.80;99.90;;;;;;4993389;28;20068;-68
2022/12/24 03:14:53;;;;;;;40.05;5.97;;;8.80;99.90;;;;;;4991644;28;20072;-68
2022/12/24 03:17:19;;;;;;;40.42;5.13;;;8.80;99.90;;;;;;5003986;28;20072;-68
2022/12/24 03:19:46;;;;;;;34.17;5.03;;;8.70;99.90;;;;;;5123279;27;20031;-68
2022/12/24 03:22:12;;;;;;;31.63;4.47;;;8.70;99.90;;;;;;5118487;27;20065;-68
2022/12/24 03:24:38;;;;;;;30.92;5.00;;;8.70;99.90;;;;;;5089098;27;20044;-68
2022/12/24 03:27:06;;;;;;;33.95;5.70;;;8.70;99.90;;;;;;5101512;27;20115;-69
2022/12/24 03:29:32;;;;;;;35.92;5.50;;;8.60;99.90;;;;;;5120388;27;20047;-68
2022/12/24 03:32:00;;;;;;;36.28;5.13;;;8.60;99.90;;;;;;5121163;27;20075;-68
2022/12/24 03:34:26;;;;;;;40.03;5.35;;;8.60;99.90;;;;;;5125120;27;20043;-68
2022/12/24 03:36:52;;;;;;;36.72;5.00;;;8.60;99.90;;;;;;5092477;28;20043;-68
2022/12/24 03:39:18;;;;;;;36.40;6.07;;;8.60;99.90;;;;;;5092938;28;20101;-67
2022/12/24 03:41:43;;;;;;;36.42;5.50;;;8.60;99.90;;;;;;5090954;28;20464;-68
2022/12/24 03:44:09;;;;;;;37.28;4.75;;;8.70;99.90;;;;;;5091340;28;20395;-68
2022/12/24 03:46:35;;;;;;;33.65;5.65;;;8.60;99.90;;;;;;5085266;28;20513;-67
2022/12/24 03:49:00;;;;;;;35.33;4.07;;;8.60;99.90;;;;;;5069239;28;21933;-68
2022/12/24 03:51:27;;;;;;;36.65;4.93;;;8.70;99.90;;;;;;5087912;28;20505;-69
2022/12/24 03:53:55;;;;;;;38.25;5.00;;;8.70;99.90;;;;;;5088674;28;20050;-68
2022/12/24 03:56:22;;;;;;;33.60;5.28;;;8.70;99.90;;;;;;5124053;27;20049;-67
2022/12/24 03:58:48;;;;;;;34.17;4.90;;;8.70;99.90;;;;;;5109491;27;20039;-68
2022/12/24 04:01:15;;;;;;;44.13;5.90;;;8.70;99.90;;;;;;5121806;27;20044;-68
2022/12/24 04:03:40;;;;;;;34.42;4.85;;;8.70;99.90;;;;;;5091123;28;20048;-68
2022/12/24 04:06:12;;;;;;;35.60;4.90;;;8.70;99.90;;;;;;5087867;28;20502;-68
2022/12/24 04:08:39;;;;;;;32.33;5.60;;;8.70;99.90;;;;;;5086467;28;20444;-68
2022/12/24 04:11:07;;;;;;;42.95;5.32;;;8.70;99.90;;;;;;5123765;27;20039;-68
2022/12/24 04:13:33;;;;;;;36.15;6.03;;;8.70;99.90;;;;;;5087900;28;20113;-68
2022/12/24 04:16:07;;;;;;;41.33;5.82;;;8.70;99.90;;;;;;5124929;27;20071;-68
2022/12/24 04:18:32;;;;;;;43.42;6.65;;;8.70;99.90;;;;;;5090552;28;20039;-68
2022/12/24 04:20:58;;;;;;;45.33;8.10;;;8.70;99.90;;;;;;5087640;28;20108;-68
2022/12/24 04:23:24;;;;;;;36.30;4.93;;;8.70;99.90;;;;;;5092916;28;20039;-68
2022/12/24 04:25:50;;;;;;;37.55;5.75;;;8.70;99.90;;;;;;5125177;27;20046;-68
2022/12/24 04:28:16;;;;;;;35.97;5.05;;;8.70;99.90;;;;;;5074583;28;20059;-68
2022/12/24 04:30:42;;;;;;;43.72;5.93;;;8.70;99.90;;;;;;5089314;28;20051;-68
2022/12/24 04:33:09;;;;;;;38.78;5.95;;;8.70;99.90;;;;;;5089951;28;20031;-68
2022/12/24 04:35:39;;;;;;;39.90;5.20;;;8.70;99.90;;;;;;5122976;27;20047;-67
2022/12/24 04:38:04;;;;;;;37.40;5.72;;;8.70;99.90;;;;;;5105981;28;20045;-68
2022/12/24 04:40:30;;;;;;;39.45;5.65;;;8.70;99.90;;;;;;5119557;27;20379;-69
2022/12/24 04:42:56;;;;;;;39.47;5.95;;;8.70;99.90;;;;;;5125007;27;20382;-68
2022/12/24 04:45:21;;;;;;;27.23;4.85;;;8.70;99.90;;;;;;5125877;27;20043;-68
2022/12/24 04:47:47;;;;;;;36.22;6.28;;;8.70;99.90;;;;;;5091922;28;20051;-69
2022/12/24 04:50:13;;;;;;;37.63;5.07;;;8.70;99.90;;;;;;5083820;28;20031;-68
2022/12/24 04:52:38;;;;;;;34.67;5.03;;;8.70;99.90;;;;;;5119067;27;20044;-68
2022/12/24 04:55:04;;;;;;;34.67;5.63;;;8.70;99.90;;;;;;5116896;27;20540;-68
2022/12/24 04:57:32;;;;;;;36.38;4.95;;;8.70;99.90;;;;;;5091507;28;20176;-69
2022/12/24 04:59:58;;;;;;;36.40;6.15;;;8.70;99.90;;;;;;5122300;28;20055;-68
2022/12/24 05:02:24;;;;;;;45.75;6.78;;;8.70;99.90;;;;;;5091727;28;20043;-68
2022/12/24 05:04:49;;;;;;;42.33;6.32;;;8.70;99.90;;;;;;5071773;28;20083;-68
2022/12/24 05:07:15;;;;;;;40.55;5.70;;;8.70;99.90;;;;;;5088060;28;20046;-67
2022/12/24 05:09:41;;;;;;;39.03;4.97;;;8.70;99.90;;;;;;5098416;28;20054;-68
2022/12/24 05:12:07;;;;;;;32.03;5.30;;;8.70;99.90;;;;;;5085938;28;20039;-69
2022/12/24 05:14:32;;;;;;;39.42;6.03;;;8.70;99.90;;;;;;5101174;28;20031;-68
2022/12/24 05:16:58;;;;;;;40.53;6.03;;;8.70;99.90;;;;;;5084677;28;20118;-68
2022/12/24 05:19:23;;;;;;;40.65;5.30;;;8.70;99.90;;;;;;5118943;27;20051;-68
2022/12/24 05:26:20;;;;;;;33.70;5.03;;;8.70;99.90;;;;;;5123562;27;20047;-68
2022/12/24 05:27:19;;;;;;;35.55;6.15;;;8.70;99.90;;;;;;5091651;28;20058;-68
2022/12/24 05:29:45;;;;;;;43.42;7.85;;;8.70;99.90;;;;;;5086390;28;20059;-68
2022/12/24 05:32:10;;;;;;;37.85;5.35;;;8.70;99.90;;;;;;5086098;28;20047;-68
2022/12/24 05:34:36;;;;;;;30.92;5.30;;;8.70;99.90;;;;;;5120484;28;20078;-68
2022/12/24 05:37:02;;;;;;;32.67;5.15;;;8.70;99.90;;;;;;5088059;28;20036;-67
2022/12/24 05:39:27;;;;;;;48.15;7.30;;;8.70;99.90;;;;;;5109582;28;20039;-68
2022/12/24 05:41:53;;;;;;;37.80;5.93;;;8.70;99.90;;;;;;5088946;28;20092;-68
2022/12/24 05:44:18;;;;;;;38.13;5.68;;;8.70;99.90;;;;;;5090310;28;20126;-68
2022/12/24 05:46:45;;;;;;;42.80;5.65;;;8.70;99.90;;;;;;5092005;28;20040;-68
2022/12/24 05:49:11;;;;;;;40.88;5.97;;;8.70;99.90;;;;;;5124583;27;20031;-68
2022/12/24 05:51:36;;;;;;;30.48;6.35;;;8.70;99.90;;;;;;5126035;27;20046;-68
2022/12/24 05:54:02;;;;;;;36.45;5.15;;;8.70;99.90;;;;;;5124211;27;20035;-69
2022/12/24 05:56:28;;;;;;;33.08;5.20;;;8.70;99.90;;;;;;5094800;28;20036;-68
2022/12/24 05:58:54;;;;;;;38.58;5.22;;;8.70;99.90;;;;;;5092507;28;20051;-68
2022/12/24 06:01:23;;;;;;;50.35;7.00;;;8.70;99.90;;;;;;5128850;27;20039;-68
2022/12/24 06:03:50;;;;;;;38.05;5.13;;;8.80;99.90;;;;;;5093653;27;20088;-68
2022/12/24 06:06:21;;;;;;;38.63;6.65;;;8.80;99.90;;;;;;5128976;27;20039;-68
2022/12/24 06:08:48;;;;;;;40.78;6.50;;;8.70;99.90;;;;;;5125414;27;20043;-68
2022/12/24 06:11:16;;;;;;;35.55;5.53;;;8.70;99.90;;;;;;5093866;27;20039;-68
2022/12/24 06:13:42;;;;;;;29.15;4.30;;;8.70;99.90;;;;;;5094162;28;20043;-68
2022/12/24 06:16:12;;;;;;;32.83;4.47;;;8.70;99.90;;;;;;5094834;28;20549;-68
2022/12/24 06:18:38;;;;;;;38.67;5.80;;;8.70;99.90;;;;;;5124497;27;20043;-68
2022/12/24 06:21:04;;;;;;;35.30;5.13;;;8.70;99.90;;;;;;5110069;28;20383;-68
2022/12/24 06:23:33;;;;;;;31.30;4.13;;;8.70;99.90;;;;;;5093721;28;20321;-68
2022/12/24 06:26:00;;;;;;;25.08;4.50;;;8.70;99.90;;;;;;5094389;28;20088;-68
2022/12/24 06:28:27;;;;;;;31.88;5.68;;;8.70;99.90;;;;;;5122660;27;20056;-68
2022/12/24 06:30:53;;;;;;;35.35;5.60;;;8.70;99.90;;;;;;5126982;27;20097;-68
2022/12/24 06:33:18;;;;;;;33.85;4.32;;;8.70;99.90;;;;;;5092496;27;20039;-68
2022/12/24 06:35:45;;;;;;;31.83;5.28;;;8.60;99.90;;;;;;5094074;28;20115;-68
2022/12/24 06:38:11;;;;;;;24.98;3.67;;;8.60;99.90;;;;;;5089416;28;20046;-68
2022/12/24 06:40:40;;;;;;;31.20;4.53;;;8.60;99.90;;;;;;5127078;27;20036;-68
2022/12/24 06:43:06;;;;;;;38.38;5.05;;;8.50;99.90;;;;;;5127249;27;20052;-68
2022/12/24 06:45:31;;;;;;;26.83;4.45;;;8.60;99.90;;;;;;5093629;28;20262;-68
2022/12/24 06:47:58;;;;;;;38.00;5.32;;;8.50;99.90;;;;;;5125382;27;20035;-68
2022/12/24 06:50:23;;;;;;;34.63;4.78;;;8.50;99.90;;;;;;5126917;27;20394;-67
2022/12/24 06:52:49;;;;;;;33.28;5.05;;;8.50;99.90;;;;;;5092489;27;20032;-68
2022/12/24 06:55:15;;;;;;;32.78;4.57;;;8.50;99.90;;;;;;5088258;28;20074;-68
2022/12/24 06:57:40;;;;;;;36.15;4.88;;;8.50;99.90;;;;;;5123863;27;20031;-68
2022/12/24 07:00:08;;;;;;;25.10;4.28;;;8.50;99.90;;;;;;5102094;27;20109;-69
2022/12/24 07:02:34;;;;;;;31.38;5.72;;;8.50;99.90;;;;;;5091781;28;20606;-69
2022/12/24 07:05:00;;;;;;;26.48;4.30;;;8.50;99.90;;;;;;5092980;28;20067;-68
2022/12/24 07:07:25;;;;;;;31.17;5.20;;;8.50;99.90;;;;;;5094081;28;20056;-67
2022/12/24 07:09:51;;;;;;;27.63;4.72;;;8.50;99.90;;;;;;5091870;28;20043;-68
2022/12/24 07:12:16;;;;;;;33.75;4.85;;;8.50;99.90;;;;;;5092925;27;20039;-69
2022/12/24 07:14:42;;;;;;;28.05;4.28;;;8.50;99.90;;;;;;5126046;27;20034;-68
2022/12/24 07:17:08;;;;;;;38.13;4.50;;;8.50;99.90;;;;;;5074068;28;20059;-68
2022/12/24 07:19:33;;;;;;;29.20;4.28;;;8.50;99.90;;;;;;5071115;28;20040;-68
2022/12/24 07:21:59;;;;;;;30.85;4.70;;;8.50;99.90;;;;;;5091229;28;20047;-68
2022/12/24 07:24:25;;;;;;;31.98;4.30;;;8.50;99.90;;;;;;5087018;28;20058;-69
2022/12/24 07:26:50;;;;;;;29.73;4.03;;;8.50;99.90;;;;;;5121459;27;20039;-66
2022/12/24 07:29:16;;;;;;;33.67;4.32;;;8.50;99.90;;;;;;5122304;27;20047;-64
2022/12/24 07:31:42;;;;;;;34.22;4.90;;;8.50;99.90;;;;;;5088576;28;20050;-66
2022/12/24 07:34:07;;;;;;;26.52;3.90;;;8.50;99.90;;;;;;5123710;27;20035;-63
2022/12/24 07:36:33;;;;;;;29.20;4.82;;;8.50;99.90;;;;;;5092227;28;20489;-63
2022/12/24 07:38:58;;;;;;;32.20;5.15;;;8.50;99.90;;;;;;5091353;28;20037;-64
2022/12/24 07:41:24;;;;;;;34.20;5.43;;;8.50;99.90;;;;;;5110204;28;20047;-63
2022/12/24 07:43:50;;;;;;;36.67;4.18;;;8.50;99.90;;;;;;5092141;28;20043;-64
2022/12/24 07:46:15;;;;;;;38.65;4.68;;;8.60;99.90;;;;;;5090964;28;20032;-64
2022/12/24 07:48:41;;;;;;;35.92;4.85;;;8.60;99.90;;;;;;5091037;28;20039;-65
2022/12/24 07:51:07;;;;;;;29.73;4.90;;;8.60;99.90;;;;;;5074539;28;20039;-65
2022/12/24 07:53:32;;;;;;;36.75;4.57;;;8.60;99.90;;;;;;5124668;27;20032;-64
2022/12/24 07:55:58;;;;;;;36.08;5.22;;;8.60;99.90;;;;;;5109436;28;20035;-63
2022/12/24 07:58:24;;;;;;;35.17;5.35;;;8.60;99.90;;;;;;5091853;28;20366;-63
2022/12/24 08:00:55;;;;;;;34.22;5.10;;;8.60;99.90;;;;;;5092018;28;20048;-65
2022/12/24 08:03:21;;;;;;;30.98;4.88;;;8.60;99.90;;;;;;5092330;28;20110;-66
2022/12/24 08:05:47;;;;;;;30.20;4.90;;;8.60;99.90;;;;;;5092137;28;20123;-66
2022/12/24 08:08:13;;;;;;;31.05;4.90;;;8.60;99.90;;;;;;5091196;28;20043;-65
2022/12/24 08:10:40;;;;;;;30.25;4.78;;;8.60;99.90;;;;;;5092343;28;20444;-65
2022/12/24 08:13:06;;;;;;;33.38;5.18;;;8.60;99.90;;;;;;5125750;27;20390;-66
2022/12/24 08:15:31;;;;;;;39.85;4.60;;;8.70;99.90;;;;;;5090880;28;20036;-64
2022/12/24 08:17:57;;;;;;;35.80;5.05;;;8.70;99.90;;;;;;5090671;28;20400;-66
2022/12/24 08:20:23;;;;;;;35.83;5.00;;;8.70;99.90;;;;;;5091511;28;20070;-66
2022/12/24 08:22:49;;;;;;;33.30;5.45;;;8.70;99.90;;;;;;5091210;28;20071;-65
2022/12/24 08:25:14;;;;;;;40.78;5.43;;;8.70;99.90;;;;;;5091539;28;20043;-65
2022/12/24 08:27:40;;;;;;;29.80;4.55;;;8.70;99.90;;;;;;5091791;27;20035;-64
2022/12/24 08:30:06;;;;;;;30.50;4.78;;;8.70;99.90;;;;;;5123046;27;20056;-64
2022/12/24 08:32:32;;;;;;;31.33;4.45;;;8.70;99.90;;;;;;5108085;28;20044;-66
2022/12/24 08:34:57;;;;;;;27.63;5.25;;;8.80;99.90;;;;;;5075052;28;20039;-66
2022/12/24 08:37:23;;;;;;;37.80;6.07;;;8.80;99.90;;;;;;5093070;28;20031;-66
2022/12/24 08:39:49;;;;;;;30.45;5.40;;;8.80;99.90;;;;;;5091914;28;20117;-65
2022/12/24 08:42:14;;;;;;;31.58;4.47;;;8.80;99.90;;;;;;5090452;28;20050;-64
2022/12/24 08:44:40;;;;;;;35.90;6.00;;;8.80;99.90;;;;;;5091890;28;20039;-66
2022/12/24 08:47:06;;;;;;;29.75;5.20;;;8.90;99.90;;;;;;5091729;28;20044;-67
2022/12/24 08:49:32;;;;;;;38.72;5.32;;;8.90;99.90;;;;;;5125509;28;20044;-64
2022/12/24 08:51:57;;;;;;;41.25;5.07;;;8.90;99.90;;;;;;5125950;28;20167;-66
2022/12/24 08:54:24;;;;;;;38.22;5.50;;;8.90;99.90;;;;;;5091003;28;20039;-65
2022/12/24 08:56:50;;;;;;;36.28;5.88;;;9.00;99.90;;;;;;5090800;28;20058;-66
2022/12/24 08:59:15;;;;;;;30.02;5.38;;;9.00;99.90;;;;;;5125220;27;20472;-66
2022/12/24 09:01:41;;;;;;;36.20;5.90;;;9.00;99.90;;;;;;5124687;28;20035;-65
2022/12/24 09:04:08;;;;;;;42.63;5.25;;;9.00;99.90;;;;;;5125795;27;20182;-64
2022/12/24 09:06:34;;;;;;;35.92;5.68;;;9.00;99.90;;;;;;5091216;28;20043;-65
2022/12/24 09:09:02;;;;;;;42.03;6.20;;;9.00;99.90;;;;;;5091114;28;20370;-67
2022/12/24 09:11:27;;;;;;;39.15;5.25;;;9.00;99.90;;;;;;5089855;28;20032;-65
2022/12/24 09:13:54;;;;;;;39.88;5.93;;;9.00;99.90;;;;;;5124717;28;20466;-65
2022/12/24 09:16:19;;;;;;;38.88;6.20;;;9.00;99.90;;;;;;5121516;28;20048;-66
2022/12/24 09:18:45;;;;;;;34.33;6.13;;;9.00;99.90;;;;;;5124938;27;20068;-66
2022/12/24 09:21:13;;;;;;;34.33;4.78;;;9.00;99.90;;;;;;5112946;28;20035;-64
2022/12/24 09:23:41;;;;;;;43.38;5.18;;;9.00;99.90;;;;;;5128806;27;20039;-66
2022/12/24 09:26:11;;;;;;;40.63;5.82;;;9.10;99.90;;;;;;5128718;27;20184;-66
2022/12/24 09:28:36;;;;;;;42.75;6.68;;;9.20;99.90;;;;;;5095011;28;20047;-65
2022/12/24 09:31:04;;;;;;;37.53;5.13;;;9.20;99.90;;;;;;5094578;28;20043;-66
2022/12/24 09:33:33;;;;;;;42.42;5.70;;;9.20;99.90;;;;;;5109674;28;20071;-66
2022/12/24 09:35:58;;;;;;;38.53;5.90;;;9.20;99.90;;;;;;5090995;28;20383;-65
2022/12/24 09:38:25;;;;;;;39.13;6.05;;;9.20;99.90;;;;;;5089967;28;20038;-65
2022/12/24 09:40:52;;;;;;;37.90;5.28;;;9.20;99.90;;;;;;5126752;27;20035;-64
2022/12/24 09:43:20;;;;;;;37.10;4.47;;;9.10;99.90;;;;;;5128818;27;20044;-66
2022/12/24 09:46:03;;;;;;;32.72;4.63;;;9.10;99.90;;;;;;5094680;28;20101;-66
2022/12/24 09:48:30;;;;;;;35.75;4.70;;;9.10;99.90;;;;;;5126656;27;20040;-65
2022/12/24 09:51:03;;;;;;;38.60;5.22;;;9.10;99.90;;;;;;5094005;28;20085;-64
2022/12/24 09:53:42;;;;;;;34.17;4.80;;;9.10;99.90;;;;;;5094508;28;20466;-64
2022/12/24 09:56:34;;;;;;;30.65;4.70;;;9.20;99.90;;;;;;5093691;28;20119;-66
2022/12/24 09:59:04;;;;;;;30.92;4.22;;;9.20;99.90;;;;;;5128836;27;20031;-66
2022/12/24 10:01:32;;;;;;;29.63;4.30;;;9.20;99.90;;;;;;5110727;27;20043;-66
2022/12/24 10:04:04;;;;;;;27.90;4.32;;;9.20;99.90;;;;;;5128733;27;20106;-66
2022/12/24 10:06:35;;;;;;;32.42;3.75;;;9.20;99.90;;;;;;5126294;27;20039;-65
2022/12/24 10:09:23;;;;;;;34.67;5.00;;;9.20;99.90;;;;;;5094080;28;20067;-65
2022/12/24 10:12:16;;;;;;;38.25;5.63;;;9.20;99.90;;;;;;5094868;28;20059;-65
2022/12/24 10:14:57;;;;;;;36.08;4.68;;;9.20;99.90;;;;;;5094252;28;20502;-69
2022/12/24 10:17:26;;;;;;;41.63;6.00;;;9.10;99.90;;;;;;5075806;28;20116;-68
2022/12/24 10:20:12;;;;;;;37.60;5.07;;;9.10;99.90;;;;;;5093684;28;20036;-69
2022/12/24 10:22:59;;;;;;;36.92;4.85;;;9.10;99.90;;;;;;5128565;27;20524;-69
2022/12/24 10:25:55;;;;;;;38.83;5.32;;;9.10;99.90;;;;;;5092366;28;21892;-65
2022/12/24 10:28:28;;;;;;;43.55;6.50;;;9.10;99.90;;;;;;5093261;28;20047;-64
2022/12/24 10:31:00;;;;;;;40.10;5.40;;;9.20;99.90;;;;;;5093008;27;20058;-65
2022/12/24 10:33:33;;;;;;;36.50;5.18;;;9.20;99.90;;;;;;5094316;28;20051;-66
2022/12/24 10:35:59;;;;;;;37.13;5.07;;;9.20;99.90;;;;;;5124467;27;20031;-64
2022/12/24 10:38:25;;;;;;;37.90;5.05;;;9.20;99.90;;;;;;5108229;28;20052;-64
2022/12/24 10:40:55;;;;;;;37.05;5.97;;;9.20;99.90;;;;;;5127667;27;20469;-64
2022/12/24 10:43:23;;;;;;;44.42;6.93;;;9.20;99.90;;;;;;5093573;28;20040;-70
2022/12/24 10:46:00;;;;;;;41.40;5.65;;;9.30;99.90;;;;;;5094018;28;20050;-69
2022/12/24 10:48:52;;;;;;;35.58;5.28;;;9.30;99.90;;;;;;5093649;28;20039;-68
2022/12/24 10:51:28;;;;;;;35.97;6.93;;;9.30;99.90;;;;;;5093394;28;20040;-68
2022/12/24 10:54:00;;;;;;;39.45;6.90;;;9.30;99.90;;;;;;5093116;28;20501;-68
2022/12/24 10:56:26;;;;;;;36.22;5.40;;;9.30;99.90;;;;;;5093479;28;20043;-65
2022/12/24 10:58:54;;;;;;;40.83;5.30;;;9.30;99.90;;;;;;5093079;28;20046;-65
2022/12/24 11:01:40;;;;;;;36.67;5.65;;;9.30;99.90;;;;;;5093397;28;20044;-65
2022/12/24 11:04:06;;;;;;;37.83;5.07;;;9.30;99.90;;;;;;5126428;27;20055;-66
2022/12/24 11:06:32;;;;;;;39.70;4.78;;;9.30;99.90;;;;;;5090210;28;20047;-65
2022/12/24 11:09:19;;;;;;;38.47;5.05;;;9.30;99.90;;;;;;5090955;28;20040;-66
2022/12/24 11:11:45;;;;;;;38.17;5.32;;;9.30;99.90;;;;;;5126924;27;20055;-66
2022/12/24 11:14:15;;;;;;;35.40;5.80;;;9.30;99.90;;;;;;5127164;27;20493;-65
2022/12/24 11:16:52;;;;;;;39.67;5.65;;;9.30;99.90;;;;;;5126810;27;20042;-65
2022/12/24 11:19:25;;;;;;;43.80;6.90;;;9.20;99.90;;;;;;5092700;28;20482;-65
2022/12/24 11:21:57;;;;;;;;;;;9.20;99.90;;;;;;5076385;28;20039;-66
2022/12/24 11:24:29;;;;;;;36.23;5.00;;;9.20;99.90;;;;;;5092899;28;20458;-66
2022/12/24 11:27:21;;;;;;;34.78;5.70;;;9.30;99.90;;;;;;5091537;28;20043;-66
2022/12/24 11:29:47;;;;;;;;;;;9.30;99.90;;;;;;5091649;28;20109;-65
2022/12/24 11:32:19;;;;;;;39.80;7.10;;;9.30;99.90;;;;;;5091974;28;20751;-65
2022/12/24 11:34:45;;;;;;;49.40;7.03;;;9.30;99.90;;;;;;5108622;28;20291;-67
2022/12/24 11:37:22;;;;;;;39.33;5.50;;;9.40;99.90;;;;;;5075115;28;20505;-66
2022/12/24 11:39:54;;;;;;;36.00;5.75;;;9.40;99.90;;;;;;5126097;27;20096;-67
2022/12/24 11:42:40;;;;;;;39.43;4.87;;;9.40;99.90;;;;;;5126185;27;20047;-66
2022/12/24 11:45:17;;;;;;;33.92;4.70;;;9.40;99.90;;;;;;5092409;28;20074;-64
2022/12/24 11:47:42;;;;;;;37.45;4.63;;;9.40;99.90;;;;;;5076034;28;20051;-65
2022/12/24 11:50:19;;;;;;;29.40;4.82;;;9.40;99.90;;;;;;5092431;28;20046;-67
2022/12/24 11:52:48;;;;;;;34.85;4.90;;;9.40;99.90;;;;;;5092760;28;20054;-67
2022/12/24 11:55:32;;;;;;;27.48;5.00;;;9.30;99.90;;;;;;5109261;28;20035;-66
2022/12/24 11:58:27;;;;;;;30.50;4.03;;;9.30;99.90;;;;;;5075017;28;20052;-65
2022/12/24 12:01:13;;;;;;;31.17;4.28;;;9.30;99.90;;;;;;5092684;28;20043;-69
2022/12/24 12:03:47;;;;;;;28.20;5.53;;;9.30;99.90;;;;;;5126423;27;20043;-66
2022/12/24 12:06:31;;;;;;;22.88;3.97;;;9.30;99.90;;;;;;5126372;27;20171;-67
2022/12/24 12:09:05;;;;;;;27.15;4.20;;;9.30;99.90;;;;;;5092015;28;20040;-67
2022/12/24 12:11:33;;;;;;;28.25;3.90;;;9.40;99.90;;;;;;5092245;28;20055;-68
2022/12/24 12:14:08;;;;;;;26.42;4.55;;;9.30;99.90;;;;;;5126311;27;20066;-66
2022/12/24 12:17:02;;;;;;;28.23;4.32;;;9.40;99.90;;;;;;5125955;27;20036;-65
2022/12/24 12:19:42;;;;;;;27.88;3.70;;;9.40;99.90;;;;;;5092610;28;20039;-70
2022/12/24 12:22:25;;;;;;;29.50;4.50;;;9.40;99.90;;;;;;5126661;27;20128;-65
2022/12/24 12:24:55;;;;;;;29.70;4.20;;;9.40;99.90;;;;;;5125938;27;20046;-67
2022/12/24 12:27:35;;;;;;;31.85;4.47;;;9.50;99.90;;;;;;5090962;28;20066;-65
2022/12/24 12:30:04;;;;;;;30.13;5.07;;;9.50;99.90;;;;;;5124512;27;20048;-66
2022/12/24 12:32:30;;;;;;;26.33;4.82;;;9.60;99.90;;;;;;5125894;27;20043;-67
2022/12/24 12:35:16;;;;;;;27.67;3.83;;;9.70;99.90;;;;;;5092334;28;20043;-65
2022/12/24 12:37:50;;;;;;;25.45;4.90;;;10.00;99.90;;;;;;5125535;27;20082;-66
2022/12/24 12:40:16;;;;;;;29.80;4.55;;;10.20;99.90;;;;;;5091514;28;20048;-64
2022/12/24 12:43:11;;;;;;;26.80;4.45;;;10.20;99.90;;;;;;5125962;27;20123;-66
2022/12/24 12:46:01;;;;;;;28.05;4.63;;;10.10;99.90;;;;;;5091952;28;20051;-66
2022/12/24 12:48:36;;;;;;;25.38;4.25;;;10.00;99.90;;;;;;5109313;28;20055;-65
2022/12/24 12:51:12;;;;;;;27.42;4.53;;;9.90;99.90;;;;;;5074789;28;20031;-66
2022/12/24 12:54:20;;;;;;;27.45;3.67;;;9.90;99.90;;;;;;5111133;28;20058;-65
2022/12/24 12:56:49;;;;;;;22.13;3.78;;;9.80;99.90;;;;;;5033803;28;20045;-64
2022/12/24 12:59:39;;;;;;;24.15;3.53;;;9.70;99.90;;;;;;5032267;28;20182;-68
2022/12/24 13:02:40;;;;;;;22.42;4.53;;;9.80;99.90;;;;;;5050831;28;20044;-66
2022/12/24 13:05:20;;;;;;;20.45;3.63;;;10.10;99.90;;;;;;5034334;28;20659;-67